sensor_id;sensor_type;location;lat;lon;timestamp;P1;durP1;ratioP1;P2;durP2;ratioP2
5127;SDS011;2582;48.770;9.190;2024-03-06T00:00:40;3.33;;;2.97;;
5127;SDS011;2582;48.770;9.190;2024-03-06T00:03:06;3.10;;;2.53;;
5127;SDS011;2582;48.770;9.190;2024-03-06T00:05:32;2.53;;;2.33;;
5127;SDS011;2582;48.770;9.190;2024-03-06T00:07:57;2.30;;;1.90;;
5127;SDS011;2582;48.770;9.190;2024-03-06T00:10:23;3.03;;;2.17;;
5127;SDS011;2582;48.770;9.190;2024-03-06T00:12:48;3.47;;;2.30;;
5127;SDS011;2582;48.770;9.190;2024-03-06T00:15:14;2.30;;;2.07;;
5127;SDS011;2582;48.770;9.190;2024-03-06T00:17:39;4.00;;;2.30;;
5127;SDS011;2582;48.770;9.190;2024-03-06T00:20:05;3.23;;;2.40;;
5127;SDS011;2582;48.770;9.190;2024-03-06T00:22:32;2.57;;;2.03;;
5127;SDS011;2582;48.770;9.190;2024-03-06T00:24:57;2.30;;;1.90;;
5127;SDS011;2582;48.770;9.190;2024-03-06T00:27:23;2.00;;;1.83;;
5127;SDS011;2582;48.770;9.190;2024-03-06T00:29:48;3.50;;;1.90;;
5127;SDS011;2582;48.770;9.190;2024-03-06T00:32:14;3.57;;;2.37;;
5127;SDS011;2582;48.770;9.190;2024-03-06T00:34:39;3.10;;;2.20;;
5127;SDS011;2582;48.770;9.190;2024-03-06T00:37:05;2.27;;;1.77;;
5127;SDS011;2582;48.770;9.190;2024-03-06T00:39:31;2.67;;;1.70;;
5127;SDS011;2582;48.770;9.190;2024-03-06T00:41:56;3.20;;;2.37;;
5127;SDS011;2582;48.770;9.190;2024-03-06T00:44:22;2.33;;;2.00;;
5127;SDS011;2582;48.770;9.190;2024-03-06T00:46:47;3.53;;;2.30;;
5127;SDS011;2582;48.770;9.190;2024-03-06T00:49:13;2.33;;;1.90;;
5127;SDS011;2582;48.770;9.190;2024-03-06T00:51:39;2.70;;;2.10;;
5127;SDS011;2582;48.770;9.190;2024-03-06T00:54:05;3.27;;;2.40;;
5127;SDS011;2582;48.770;9.190;2024-03-06T00:56:30;3.20;;;2.03;;
5127;SDS011;2582;48.770;9.190;2024-03-06T00:58:56;2.53;;;2.20;;
5127;SDS011;2582;48.770;9.190;2024-03-06T01:01:21;3.93;;;2.27;;
5127;SDS011;2582;48.770;9.190;2024-03-06T01:03:47;3.07;;;2.57;;
5127;SDS011;2582;48.770;9.190;2024-03-06T01:06:13;2.37;;;2.17;;
5127;SDS011;2582;48.770;9.190;2024-03-06T01:08:38;3.40;;;2.10;;
5127;SDS011;2582;48.770;9.190;2024-03-06T01:11:04;3.03;;;2.33;;
5127;SDS011;2582;48.770;9.190;2024-03-06T01:13:30;3.27;;;2.93;;
5127;SDS011;2582;48.770;9.190;2024-03-06T01:15:56;3.53;;;2.47;;
5127;SDS011;2582;48.770;9.190;2024-03-06T01:18:21;2.47;;;2.10;;
5127;SDS011;2582;48.770;9.190;2024-03-06T01:20:47;2.53;;;2.30;;
5127;SDS011;2582;48.770;9.190;2024-03-06T01:23:12;4.33;;;2.57;;
5127;SDS011;2582;48.770;9.190;2024-03-06T01:25:38;2.40;;;2.20;;
5127;SDS011;2582;48.770;9.190;2024-03-06T01:28:04;2.73;;;2.53;;
5127;SDS011;2582;48.770;9.190;2024-03-06T01:30:29;5.83;;;2.60;;
5127;SDS011;2582;48.770;9.190;2024-03-06T01:32:55;4.03;;;2.60;;
5127;SDS011;2582;48.770;9.190;2024-03-06T01:35:20;3.03;;;2.43;;
5127;SDS011;2582;48.770;9.190;2024-03-06T01:37:46;3.57;;;2.50;;
5127;SDS011;2582;48.770;9.190;2024-03-06T01:40:11;3.63;;;2.30;;
5127;SDS011;2582;48.770;9.190;2024-03-06T01:42:37;3.00;;;2.60;;
5127;SDS011;2582;48.770;9.190;2024-03-06T01:45:03;3.80;;;2.50;;
5127;SDS011;2582;48.770;9.190;2024-03-06T01:47:29;3.00;;;2.67;;
5127;SDS011;2582;48.770;9.190;2024-03-06T01:49:55;2.63;;;2.43;;
5127;SDS011;2582;48.770;9.190;2024-03-06T01:52:21;3.93;;;3.03;;
5127;SDS011;2582;48.770;9.190;2024-03-06T01:54:47;4.60;;;2.70;;
5127;SDS011;2582;48.770;9.190;2024-03-06T01:57:15;3.97;;;3.13;;
5127;SDS011;2582;48.770;9.190;2024-03-06T01:59:42;2.63;;;2.40;;
5127;SDS011;2582;48.770;9.190;2024-03-06T02:02:08;3.73;;;2.87;;
5127;SDS011;2582;48.770;9.190;2024-03-06T02:04:36;3.70;;;2.73;;
5127;SDS011;2582;48.770;9.190;2024-03-06T02:07:02;4.90;;;3.10;;
5127;SDS011;2582;48.770;9.190;2024-03-06T02:09:33;2.87;;;2.50;;
5127;SDS011;2582;48.770;9.190;2024-03-06T02:11:58;5.13;;;2.53;;
5127;SDS011;2582;48.770;9.190;2024-03-06T02:14:24;2.80;;;2.53;;
5127;SDS011;2582;48.770;9.190;2024-03-06T02:16:49;2.80;;;2.10;;
5127;SDS011;2582;48.770;9.190;2024-03-06T02:19:15;4.13;;;2.77;;
5127;SDS011;2582;48.770;9.190;2024-03-06T02:21:40;3.80;;;2.80;;
5127;SDS011;2582;48.770;9.190;2024-03-06T02:24:06;2.87;;;2.60;;
5127;SDS011;2582;48.770;9.190;2024-03-06T02:26:33;4.50;;;2.90;;
5127;SDS011;2582;48.770;9.190;2024-03-06T02:28:59;4.03;;;2.20;;
5127;SDS011;2582;48.770;9.190;2024-03-06T02:31:25;4.10;;;2.27;;
5127;SDS011;2582;48.770;9.190;2024-03-06T02:33:50;3.03;;;2.60;;
5127;SDS011;2582;48.770;9.190;2024-03-06T02:36:16;3.30;;;2.80;;
5127;SDS011;2582;48.770;9.190;2024-03-06T02:38:43;3.13;;;2.77;;
5127;SDS011;2582;48.770;9.190;2024-03-06T02:41:09;9.10;;;3.70;;
5127;SDS011;2582;48.770;9.190;2024-03-06T02:43:36;4.60;;;2.97;;
5127;SDS011;2582;48.770;9.190;2024-03-06T02:46:02;3.00;;;2.70;;
5127;SDS011;2582;48.770;9.190;2024-03-06T02:48:28;4.33;;;3.23;;
5127;SDS011;2582;48.770;9.190;2024-03-06T02:50:54;4.40;;;3.30;;
5127;SDS011;2582;48.770;9.190;2024-03-06T02:53:20;5.20;;;3.50;;
5127;SDS011;2582;48.770;9.190;2024-03-06T02:55:45;5.57;;;5.07;;
5127;SDS011;2582;48.770;9.190;2024-03-06T02:58:11;5.10;;;4.60;;
5127;SDS011;2582;48.770;9.190;2024-03-06T03:00:36;5.30;;;4.70;;
5127;SDS011;2582;48.770;9.190;2024-03-06T03:03:04;7.00;;;5.63;;
5127;SDS011;2582;48.770;9.190;2024-03-06T03:05:30;7.30;;;6.07;;
5127;SDS011;2582;48.770;9.190;2024-03-06T03:07:56;6.13;;;5.37;;
5127;SDS011;2582;48.770;9.190;2024-03-06T03:10:21;9.00;;;6.80;;
5127;SDS011;2582;48.770;9.190;2024-03-06T03:12:49;8.57;;;6.00;;
5127;SDS011;2582;48.770;9.190;2024-03-06T03:15:15;8.83;;;7.10;;
5127;SDS011;2582;48.770;9.190;2024-03-06T03:17:41;7.80;;;6.93;;
5127;SDS011;2582;48.770;9.190;2024-03-06T03:20:06;9.03;;;7.47;;
5127;SDS011;2582;48.770;9.190;2024-03-06T03:22:41;7.30;;;6.60;;
5127;SDS011;2582;48.770;9.190;2024-03-06T03:25:07;6.20;;;5.53;;
5127;SDS011;2582;48.770;9.190;2024-03-06T03:27:37;8.30;;;5.90;;
5127;SDS011;2582;48.770;9.190;2024-03-06T03:30:07;6.63;;;5.93;;
5127;SDS011;2582;48.770;9.190;2024-03-06T03:32:33;8.03;;;6.43;;
5127;SDS011;2582;48.770;9.190;2024-03-06T03:34:59;6.60;;;5.77;;
5127;SDS011;2582;48.770;9.190;2024-03-06T03:37:24;8.13;;;6.03;;
5127;SDS011;2582;48.770;9.190;2024-03-06T03:39:50;8.47;;;6.57;;
5127;SDS011;2582;48.770;9.190;2024-03-06T03:42:16;5.80;;;5.20;;
5127;SDS011;2582;48.770;9.190;2024-03-06T03:44:41;6.53;;;5.40;;
5127;SDS011;2582;48.770;9.190;2024-03-06T03:47:07;6.83;;;6.17;;
5127;SDS011;2582;48.770;9.190;2024-03-06T03:49:32;6.20;;;5.60;;
5127;SDS011;2582;48.770;9.190;2024-03-06T03:51:58;7.37;;;6.33;;
5127;SDS011;2582;48.770;9.190;2024-03-06T03:54:24;6.03;;;5.27;;
5127;SDS011;2582;48.770;9.190;2024-03-06T03:56:50;5.87;;;5.27;;
5127;SDS011;2582;48.770;9.190;2024-03-06T03:59:15;6.23;;;5.60;;
5127;SDS011;2582;48.770;9.190;2024-03-06T04:01:41;5.63;;;5.13;;
5127;SDS011;2582;48.770;9.190;2024-03-06T04:04:06;8.30;;;4.10;;
5127;SDS011;2582;48.770;9.190;2024-03-06T04:06:33;6.77;;;6.10;;
5127;SDS011;2582;48.770;9.190;2024-03-06T04:08:58;5.20;;;4.67;;
5127;SDS011;2582;48.770;9.190;2024-03-06T04:11:24;5.30;;;4.83;;
5127;SDS011;2582;48.770;9.190;2024-03-06T04:13:50;6.20;;;4.60;;
5127;SDS011;2582;48.770;9.190;2024-03-06T04:16:16;6.67;;;5.17;;
5127;SDS011;2582;48.770;9.190;2024-03-06T04:18:43;6.53;;;5.20;;
5127;SDS011;2582;48.770;9.190;2024-03-06T04:21:09;5.70;;;5.20;;
5127;SDS011;2582;48.770;9.190;2024-03-06T04:23:35;4.87;;;4.37;;
5127;SDS011;2582;48.770;9.190;2024-03-06T04:26:01;5.90;;;4.60;;
5127;SDS011;2582;48.770;9.190;2024-03-06T04:28:28;5.87;;;5.37;;
5127;SDS011;2582;48.770;9.190;2024-03-06T04:30:54;7.33;;;4.70;;
5127;SDS011;2582;48.770;9.190;2024-03-06T04:33:19;6.73;;;4.87;;
5127;SDS011;2582;48.770;9.190;2024-03-06T04:35:45;5.23;;;4.80;;
5127;SDS011;2582;48.770;9.190;2024-03-06T04:38:11;5.50;;;4.80;;
5127;SDS011;2582;48.770;9.190;2024-03-06T04:40:36;5.83;;;5.23;;
5127;SDS011;2582;48.770;9.190;2024-03-06T04:43:02;6.37;;;5.73;;
5127;SDS011;2582;48.770;9.190;2024-03-06T04:45:28;5.47;;;4.93;;
5127;SDS011;2582;48.770;9.190;2024-03-06T04:47:53;6.17;;;5.47;;
5127;SDS011;2582;48.770;9.190;2024-03-06T04:50:19;6.73;;;5.77;;
5127;SDS011;2582;48.770;9.190;2024-03-06T04:52:45;9.20;;;6.10;;
5127;SDS011;2582;48.770;9.190;2024-03-06T04:55:11;9.40;;;5.70;;
5127;SDS011;2582;48.770;9.190;2024-03-06T04:57:37;6.07;;;5.03;;
5127;SDS011;2582;48.770;9.190;2024-03-06T05:00:05;7.90;;;5.47;;
5127;SDS011;2582;48.770;9.190;2024-03-06T05:02:33;6.47;;;5.97;;
5127;SDS011;2582;48.770;9.190;2024-03-06T05:04:59;4.90;;;4.33;;
5127;SDS011;2582;48.770;9.190;2024-03-06T05:07:26;6.33;;;5.23;;
5127;SDS011;2582;48.770;9.190;2024-03-06T05:09:56;6.67;;;5.57;;
5127;SDS011;2582;48.770;9.190;2024-03-06T05:12:23;5.93;;;4.83;;
5127;SDS011;2582;48.770;9.190;2024-03-06T05:14:50;6.20;;;5.17;;
5127;SDS011;2582;48.770;9.190;2024-03-06T05:17:16;8.07;;;5.70;;
5127;SDS011;2582;48.770;9.190;2024-03-06T05:19:42;6.07;;;5.47;;
5127;SDS011;2582;48.770;9.190;2024-03-06T05:22:08;8.97;;;5.93;;
5127;SDS011;2582;48.770;9.190;2024-03-06T05:24:33;6.37;;;4.80;;
5127;SDS011;2582;48.770;9.190;2024-03-06T05:26:59;5.50;;;5.00;;
5127;SDS011;2582;48.770;9.190;2024-03-06T05:29:24;5.60;;;4.57;;
5127;SDS011;2582;48.770;9.190;2024-03-06T05:31:51;10.10;;;6.90;;
5127;SDS011;2582;48.770;9.190;2024-03-06T05:34:16;6.13;;;5.53;;
5127;SDS011;2582;48.770;9.190;2024-03-06T05:36:42;9.17;;;6.20;;
5127;SDS011;2582;48.770;9.190;2024-03-06T05:39:08;5.90;;;5.40;;
5127;SDS011;2582;48.770;9.190;2024-03-06T05:41:37;8.43;;;5.90;;
5127;SDS011;2582;48.770;9.190;2024-03-06T05:44:04;6.33;;;5.63;;
5127;SDS011;2582;48.770;9.190;2024-03-06T05:46:29;6.17;;;5.20;;
5127;SDS011;2582;48.770;9.190;2024-03-06T05:48:55;8.20;;;5.43;;
5127;SDS011;2582;48.770;9.190;2024-03-06T05:51:20;7.70;;;6.30;;
5127;SDS011;2582;48.770;9.190;2024-03-06T05:53:46;7.60;;;5.33;;
5127;SDS011;2582;48.770;9.190;2024-03-06T05:56:11;5.60;;;4.10;;
5127;SDS011;2582;48.770;9.190;2024-03-06T05:58:37;6.60;;;5.30;;
5127;SDS011;2582;48.770;9.190;2024-03-06T06:01:02;6.70;;;5.93;;
5127;SDS011;2582;48.770;9.190;2024-03-06T06:03:28;7.70;;;5.43;;
5127;SDS011;2582;48.770;9.190;2024-03-06T06:05:55;6.87;;;5.40;;
5127;SDS011;2582;48.770;9.190;2024-03-06T06:08:20;6.60;;;5.50;;
5127;SDS011;2582;48.770;9.190;2024-03-06T06:10:46;5.87;;;4.83;;
5127;SDS011;2582;48.770;9.190;2024-03-06T06:13:12;14.03;;;7.13;;
5127;SDS011;2582;48.770;9.190;2024-03-06T06:15:37;7.30;;;5.40;;
5127;SDS011;2582;48.770;9.190;2024-03-06T06:18:03;8.20;;;6.23;;
5127;SDS011;2582;48.770;9.190;2024-03-06T06:20:29;5.83;;;5.20;;
5127;SDS011;2582;48.770;9.190;2024-03-06T06:22:55;7.87;;;5.90;;
5127;SDS011;2582;48.770;9.190;2024-03-06T06:25:21;8.33;;;5.60;;
5127;SDS011;2582;48.770;9.190;2024-03-06T06:27:47;8.17;;;6.80;;
5127;SDS011;2582;48.770;9.190;2024-03-06T06:30:14;8.17;;;5.80;;
5127;SDS011;2582;48.770;9.190;2024-03-06T06:32:41;8.73;;;5.20;;
5127;SDS011;2582;48.770;9.190;2024-03-06T06:35:07;7.50;;;6.00;;
5127;SDS011;2582;48.770;9.190;2024-03-06T06:37:34;9.30;;;6.23;;
5127;SDS011;2582;48.770;9.190;2024-03-06T06:39:59;10.10;;;7.90;;
5127;SDS011;2582;48.770;9.190;2024-03-06T06:42:27;6.63;;;5.97;;
5127;SDS011;2582;48.770;9.190;2024-03-06T06:44:53;9.40;;;6.20;;
5127;SDS011;2582;48.770;9.190;2024-03-06T06:47:18;8.67;;;6.47;;
5127;SDS011;2582;48.770;9.190;2024-03-06T06:49:44;8.57;;;6.60;;
5127;SDS011;2582;48.770;9.190;2024-03-06T06:52:09;7.80;;;6.23;;
5127;SDS011;2582;48.770;9.190;2024-03-06T06:54:35;7.23;;;6.43;;
5127;SDS011;2582;48.770;9.190;2024-03-06T06:57:01;7.80;;;6.37;;
5127;SDS011;2582;48.770;9.190;2024-03-06T06:59:28;7.40;;;6.63;;
5127;SDS011;2582;48.770;9.190;2024-03-06T07:01:53;8.67;;;6.10;;
5127;SDS011;2582;48.770;9.190;2024-03-06T07:04:19;7.53;;;5.63;;
5127;SDS011;2582;48.770;9.190;2024-03-06T07:06:45;7.73;;;6.87;;
5127;SDS011;2582;48.770;9.190;2024-03-06T07:09:11;10.70;;;5.60;;
5127;SDS011;2582;48.770;9.190;2024-03-06T07:11:37;6.80;;;5.63;;
5127;SDS011;2582;48.770;9.190;2024-03-06T07:14:02;6.87;;;5.90;;
5127;SDS011;2582;48.770;9.190;2024-03-06T07:16:28;6.60;;;5.67;;
5127;SDS011;2582;48.770;9.190;2024-03-06T07:18:53;7.37;;;6.43;;
5127;SDS011;2582;48.770;9.190;2024-03-06T07:21:19;6.60;;;5.90;;
5127;SDS011;2582;48.770;9.190;2024-03-06T07:23:45;8.00;;;7.20;;
5127;SDS011;2582;48.770;9.190;2024-03-06T07:26:10;14.07;;;7.57;;
5127;SDS011;2582;48.770;9.190;2024-03-06T07:28:36;8.17;;;7.27;;
5127;SDS011;2582;48.770;9.190;2024-03-06T07:31:02;7.20;;;6.10;;
5127;SDS011;2582;48.770;9.190;2024-03-06T07:33:28;13.80;;;6.67;;
5127;SDS011;2582;48.770;9.190;2024-03-06T07:35:55;13.23;;;6.10;;
5127;SDS011;2582;48.770;9.190;2024-03-06T07:38:21;10.30;;;6.90;;
5127;SDS011;2582;48.770;9.190;2024-03-06T07:40:48;6.70;;;6.10;;
5127;SDS011;2582;48.770;9.190;2024-03-06T07:43:13;9.23;;;7.00;;
5127;SDS011;2582;48.770;9.190;2024-03-06T07:45:39;7.70;;;6.50;;
5127;SDS011;2582;48.770;9.190;2024-03-06T07:48:05;8.33;;;6.33;;
5127;SDS011;2582;48.770;9.190;2024-03-06T07:50:30;8.43;;;7.17;;
5127;SDS011;2582;48.770;9.190;2024-03-06T07:52:56;7.77;;;6.27;;
5127;SDS011;2582;48.770;9.190;2024-03-06T07:55:22;8.50;;;5.77;;
5127;SDS011;2582;48.770;9.190;2024-03-06T07:57:47;8.73;;;6.00;;
5127;SDS011;2582;48.770;9.190;2024-03-06T08:00:13;8.87;;;7.97;;
5127;SDS011;2582;48.770;9.190;2024-03-06T08:02:40;9.20;;;6.53;;
5127;SDS011;2582;48.770;9.190;2024-03-06T08:05:11;12.33;;;7.97;;
5127;SDS011;2582;48.770;9.190;2024-03-06T08:07:38;7.13;;;6.43;;
5127;SDS011;2582;48.770;9.190;2024-03-06T08:10:06;7.53;;;6.10;;
5127;SDS011;2582;48.770;9.190;2024-03-06T08:12:40;10.37;;;6.97;;
5127;SDS011;2582;48.770;9.190;2024-03-06T08:15:07;7.73;;;6.10;;
5127;SDS011;2582;48.770;9.190;2024-03-06T08:17:34;11.23;;;7.07;;
5127;SDS011;2582;48.770;9.190;2024-03-06T08:20:01;9.37;;;7.20;;
5127;SDS011;2582;48.770;9.190;2024-03-06T08:22:32;6.90;;;5.70;;
5127;SDS011;2582;48.770;9.190;2024-03-06T08:25:03;9.00;;;6.30;;
5127;SDS011;2582;48.770;9.190;2024-03-06T08:27:34;6.50;;;5.80;;
5127;SDS011;2582;48.770;9.190;2024-03-06T08:30:01;8.03;;;5.23;;
5127;SDS011;2582;48.770;9.190;2024-03-06T08:32:29;8.90;;;5.80;;
5127;SDS011;2582;48.770;9.190;2024-03-06T08:34:55;8.40;;;6.13;;
5127;SDS011;2582;48.770;9.190;2024-03-06T08:37:21;6.50;;;5.90;;
5127;SDS011;2582;48.770;9.190;2024-03-06T08:39:46;6.60;;;5.90;;
5127;SDS011;2582;48.770;9.190;2024-03-06T08:42:13;6.50;;;5.90;;
5127;SDS011;2582;48.770;9.190;2024-03-06T08:44:43;6.37;;;5.80;;
5127;SDS011;2582;48.770;9.190;2024-03-06T08:47:09;7.97;;;6.33;;
5127;SDS011;2582;48.770;9.190;2024-03-06T08:49:34;6.68;;;6.07;;
5127;SDS011;2582;48.770;9.190;2024-03-06T08:52:00;9.40;;;7.90;;
5127;SDS011;2582;48.770;9.190;2024-03-06T08:54:25;6.73;;;5.37;;
5127;SDS011;2582;48.770;9.190;2024-03-06T08:56:51;7.67;;;6.20;;
5127;SDS011;2582;48.770;9.190;2024-03-06T08:59:22;6.60;;;6.10;;
5127;SDS011;2582;48.770;9.190;2024-03-06T09:01:49;8.03;;;5.90;;
5127;SDS011;2582;48.770;9.190;2024-03-06T09:04:19;7.70;;;7.00;;
5127;SDS011;2582;48.770;9.190;2024-03-06T09:06:44;7.50;;;6.80;;
5127;SDS011;2582;48.770;9.190;2024-03-06T09:09:10;8.40;;;7.23;;
5127;SDS011;2582;48.770;9.190;2024-03-06T09:11:36;7.70;;;6.50;;
5127;SDS011;2582;48.770;9.190;2024-03-06T09:14:01;7.30;;;6.60;;
5127;SDS011;2582;48.770;9.190;2024-03-06T09:16:27;8.00;;;6.80;;
5127;SDS011;2582;48.770;9.190;2024-03-06T09:18:52;7.40;;;6.70;;
5127;SDS011;2582;48.770;9.190;2024-03-06T09:21:18;6.97;;;5.97;;
5127;SDS011;2582;48.770;9.190;2024-03-06T09:23:44;10.23;;;8.93;;
5127;SDS011;2582;48.770;9.190;2024-03-06T09:26:10;8.10;;;7.10;;
5127;SDS011;2582;48.770;9.190;2024-03-06T09:28:36;11.10;;;9.30;;
5127;SDS011;2582;48.770;9.190;2024-03-06T09:31:01;9.57;;;7.20;;
5127;SDS011;2582;48.770;9.190;2024-03-06T09:33:27;11.00;;;7.73;;
5127;SDS011;2582;48.770;9.190;2024-03-06T09:35:52;8.53;;;7.67;;
5127;SDS011;2582;48.770;9.190;2024-03-06T09:38:18;8.83;;;7.93;;
5127;SDS011;2582;48.770;9.190;2024-03-06T09:40:44;8.93;;;8.03;;
5127;SDS011;2582;48.770;9.190;2024-03-06T09:43:09;8.70;;;7.17;;
5127;SDS011;2582;48.770;9.190;2024-03-06T09:45:35;9.73;;;7.93;;
5127;SDS011;2582;48.770;9.190;2024-03-06T09:48:01;9.10;;;7.90;;
5127;SDS011;2582;48.770;9.190;2024-03-06T09:50:27;8.97;;;8.13;;
5127;SDS011;2582;48.770;9.190;2024-03-06T09:52:56;8.40;;;7.10;;
5127;SDS011;2582;48.770;9.190;2024-03-06T09:55:22;9.83;;;9.03;;
5127;SDS011;2582;48.770;9.190;2024-03-06T09:57:48;10.10;;;9.03;;
5127;SDS011;2582;48.770;9.190;2024-03-06T10:00:15;9.13;;;8.23;;
5127;SDS011;2582;48.770;9.190;2024-03-06T10:02:45;10.70;;;9.60;;
5127;SDS011;2582;48.770;9.190;2024-03-06T10:05:22;12.60;;;10.87;;
5127;SDS011;2582;48.770;9.190;2024-03-06T10:07:49;10.43;;;9.37;;
5127;SDS011;2582;48.770;9.190;2024-03-06T10:10:16;13.87;;;10.77;;
5127;SDS011;2582;48.770;9.190;2024-03-06T10:12:42;10.93;;;9.93;;
5127;SDS011;2582;48.770;9.190;2024-03-06T10:15:10;11.23;;;10.00;;
5127;SDS011;2582;48.770;9.190;2024-03-06T10:17:38;14.17;;;11.73;;
5127;SDS011;2582;48.770;9.190;2024-03-06T10:20:24;12.73;;;11.43;;
5127;SDS011;2582;48.770;9.190;2024-03-06T10:22:51;13.00;;;11.60;;
5127;SDS011;2582;48.770;9.190;2024-03-06T10:25:18;13.50;;;12.23;;
5127;SDS011;2582;48.770;9.190;2024-03-06T10:30:35;14.73;;;12.20;;
5127;SDS011;2582;48.770;9.190;2024-03-06T10:33:08;12.43;;;11.33;;
5127;SDS011;2582;48.770;9.190;2024-03-06T10:35:39;13.73;;;12.33;;
5127;SDS011;2582;48.770;9.190;2024-03-06T10:38:06;13.40;;;12.13;;
5127;SDS011;2582;48.770;9.190;2024-03-06T10:40:37;12.53;;;11.20;;
5127;SDS011;2582;48.770;9.190;2024-03-06T10:43:04;14.50;;;13.00;;
5127;SDS011;2582;48.770;9.190;2024-03-06T10:45:38;14.80;;;13.40;;
5127;SDS011;2582;48.770;9.190;2024-03-06T10:48:07;17.33;;;15.00;;
5127;SDS011;2582;48.770;9.190;2024-03-06T10:50:36;17.73;;;15.03;;
5127;SDS011;2582;48.770;9.190;2024-03-06T10:53:04;16.10;;;14.60;;
5127;SDS011;2582;48.770;9.190;2024-03-06T10:55:31;18.90;;;16.90;;
5127;SDS011;2582;48.770;9.190;2024-03-06T10:58:00;17.40;;;15.80;;
5127;SDS011;2582;48.770;9.190;2024-03-06T11:00:25;18.80;;;15.77;;
5127;SDS011;2582;48.770;9.190;2024-03-06T11:02:53;22.20;;;17.90;;
5127;SDS011;2582;48.770;9.190;2024-03-06T11:05:20;19.77;;;17.77;;
5127;SDS011;2582;48.770;9.190;2024-03-06T11:07:46;20.37;;;18.37;;
5127;SDS011;2582;48.770;9.190;2024-03-06T11:10:12;23.33;;;20.93;;
5127;SDS011;2582;48.770;9.190;2024-03-06T11:12:41;19.53;;;17.70;;
5127;SDS011;2582;48.770;9.190;2024-03-06T11:15:13;18.27;;;16.47;;
5127;SDS011;2582;48.770;9.190;2024-03-06T11:17:39;20.90;;;17.90;;
5127;SDS011;2582;48.770;9.190;2024-03-06T11:26:09;20.03;;;18.03;;
5127;SDS011;2582;48.770;9.190;2024-03-06T11:28:19;20.67;;;18.67;;
5127;SDS011;2582;48.770;9.190;2024-03-06T11:30:56;21.70;;;19.47;;
5127;SDS011;2582;48.770;9.190;2024-03-06T11:33:52;20.20;;;18.07;;
5127;SDS011;2582;48.770;9.190;2024-03-06T11:36:19;22.40;;;20.10;;
5127;SDS011;2582;48.770;9.190;2024-03-06T11:38:46;23.93;;;21.40;;
5127;SDS011;2582;48.770;9.190;2024-03-06T11:41:12;21.47;;;19.27;;
5127;SDS011;2582;48.770;9.190;2024-03-06T11:43:44;21.90;;;19.70;;
5127;SDS011;2582;48.770;9.190;2024-03-06T11:46:10;22.87;;;20.67;;
5127;SDS011;2582;48.770;9.190;2024-03-06T11:48:36;22.60;;;20.43;;
5127;SDS011;2582;48.770;9.190;2024-03-06T11:51:02;25.23;;;22.73;;
5127;SDS011;2582;48.770;9.190;2024-03-06T11:53:29;25.27;;;22.53;;
5127;SDS011;2582;48.770;9.190;2024-03-06T11:55:55;22.83;;;20.53;;
5127;SDS011;2582;48.770;9.190;2024-03-06T11:58:21;24.07;;;21.60;;
5127;SDS011;2582;48.770;9.190;2024-03-06T12:00:47;27.83;;;24.90;;
5127;SDS011;2582;48.770;9.190;2024-03-06T12:03:13;24.43;;;21.83;;
5127;SDS011;2582;48.770;9.190;2024-03-06T12:05:39;25.60;;;21.70;;
5127;SDS011;2582;48.770;9.190;2024-03-06T12:08:06;23.60;;;21.07;;
5127;SDS011;2582;48.770;9.190;2024-03-06T12:10:36;25.77;;;22.97;;
5127;SDS011;2582;48.770;9.190;2024-03-06T12:13:03;25.00;;;22.30;;
5127;SDS011;2582;48.770;9.190;2024-03-06T12:15:28;23.43;;;21.03;;
5127;SDS011;2582;48.770;9.190;2024-03-06T12:17:54;28.93;;;24.23;;
5127;SDS011;2582;48.770;9.190;2024-03-06T12:20:20;24.73;;;22.20;;
5127;SDS011;2582;48.770;9.190;2024-03-06T12:22:49;27.60;;;22.97;;
5127;SDS011;2582;48.770;9.190;2024-03-06T12:25:21;25.23;;;22.60;;
5127;SDS011;2582;48.770;9.190;2024-03-06T12:27:47;27.05;;;21.77;;
5127;SDS011;2582;48.770;9.190;2024-03-06T12:30:20;25.17;;;21.33;;
5127;SDS011;2582;48.770;9.190;2024-03-06T12:35:29;25.27;;;22.57;;
5127;SDS011;2582;48.770;9.190;2024-03-06T12:37:55;26.00;;;23.30;;
5127;SDS011;2582;48.770;9.190;2024-03-06T12:40:20;24.80;;;21.37;;
5127;SDS011;2582;48.770;9.190;2024-03-06T12:42:46;24.00;;;21.50;;
5127;SDS011;2582;48.770;9.190;2024-03-06T12:45:12;23.17;;;20.67;;
5127;SDS011;2582;48.770;9.190;2024-03-06T12:47:42;24.70;;;21.70;;
5127;SDS011;2582;48.770;9.190;2024-03-06T12:50:08;24.00;;;21.27;;
5127;SDS011;2582;48.770;9.190;2024-03-06T12:52:35;26.43;;;22.27;;
5127;SDS011;2582;48.770;9.190;2024-03-06T12:55:04;25.83;;;21.60;;
5127;SDS011;2582;48.770;9.190;2024-03-06T12:57:30;25.40;;;22.80;;
5127;SDS011;2582;48.770;9.190;2024-03-06T12:59:56;27.50;;;24.50;;
5127;SDS011;2582;48.770;9.190;2024-03-06T13:02:22;26.47;;;23.60;;
5127;SDS011;2582;48.770;9.190;2024-03-06T13:04:47;29.20;;;26.10;;
5127;SDS011;2582;48.770;9.190;2024-03-06T13:07:13;24.93;;;22.33;;
5127;SDS011;2582;48.770;9.190;2024-03-06T13:09:39;23.57;;;21.23;;
5127;SDS011;2582;48.770;9.190;2024-03-06T13:12:05;26.40;;;23.63;;
5127;SDS011;2582;48.770;9.190;2024-03-06T13:14:31;25.53;;;22.80;;
5127;SDS011;2582;48.770;9.190;2024-03-06T13:16:57;25.27;;;22.67;;
5127;SDS011;2582;48.770;9.190;2024-03-06T13:19:23;26.37;;;23.57;;
5127;SDS011;2582;48.770;9.190;2024-03-06T13:21:49;30.93;;;25.97;;
5127;SDS011;2582;48.770;9.190;2024-03-06T13:24:14;25.10;;;22.63;;
5127;SDS011;2582;48.770;9.190;2024-03-06T13:26:40;24.63;;;22.07;;
5127;SDS011;2582;48.770;9.190;2024-03-06T13:29:06;25.20;;;22.50;;
5127;SDS011;2582;48.770;9.190;2024-03-06T13:31:32;27.00;;;24.20;;
5127;SDS011;2582;48.770;9.190;2024-03-06T13:34:02;21.20;;;19.10;;
5127;SDS011;2582;48.770;9.190;2024-03-06T13:36:28;22.23;;;20.03;;
5127;SDS011;2582;48.770;9.190;2024-03-06T13:38:55;22.70;;;20.30;;
5127;SDS011;2582;48.770;9.190;2024-03-06T13:41:21;22.27;;;20.07;;
5127;SDS011;2582;48.770;9.190;2024-03-06T13:43:47;23.13;;;20.93;;
5127;SDS011;2582;48.770;9.190;2024-03-06T13:46:13;22.43;;;20.13;;
5127;SDS011;2582;48.770;9.190;2024-03-06T13:48:38;21.77;;;19.20;;
5127;SDS011;2582;48.770;9.190;2024-03-06T13:51:04;22.33;;;20.10;;
5127;SDS011;2582;48.770;9.190;2024-03-06T13:53:30;24.20;;;21.85;;
5127;SDS011;2582;48.770;9.190;2024-03-06T13:55:56;21.77;;;18.80;;
5127;SDS011;2582;48.770;9.190;2024-03-06T13:58:22;20.23;;;18.13;;
5127;SDS011;2582;48.770;9.190;2024-03-06T14:00:47;21.40;;;19.20;;
5127;SDS011;2582;48.770;9.190;2024-03-06T14:03:13;19.90;;;17.80;;
5127;SDS011;2582;48.770;9.190;2024-03-06T14:05:39;21.87;;;19.73;;
5127;SDS011;2582;48.770;9.190;2024-03-06T14:08:05;24.03;;;21.67;;
5127;SDS011;2582;48.770;9.190;2024-03-06T14:10:30;23.77;;;21.17;;
5127;SDS011;2582;48.770;9.190;2024-03-06T14:13:01;21.87;;;19.67;;
5127;SDS011;2582;48.770;9.190;2024-03-06T14:15:27;22.33;;;20.00;;
5127;SDS011;2582;48.770;9.190;2024-03-06T14:17:53;24.30;;;21.00;;
5127;SDS011;2582;48.770;9.190;2024-03-06T14:20:22;25.73;;;23.07;;
5127;SDS011;2582;48.770;9.190;2024-03-06T14:22:48;25.83;;;23.03;;
5127;SDS011;2582;48.770;9.190;2024-03-06T14:25:14;23.00;;;20.70;;
5127;SDS011;2582;48.770;9.190;2024-03-06T14:27:40;25.10;;;21.73;;
5127;SDS011;2582;48.770;9.190;2024-03-06T14:30:06;22.23;;;20.07;;
5127;SDS011;2582;48.770;9.190;2024-03-06T14:32:32;25.47;;;22.90;;
5127;SDS011;2582;48.770;9.190;2024-03-06T14:34:58;22.53;;;20.23;;
5127;SDS011;2582;48.770;9.190;2024-03-06T14:37:24;22.57;;;19.90;;
5127;SDS011;2582;48.770;9.190;2024-03-06T14:39:49;22.47;;;20.37;;
5127;SDS011;2582;48.770;9.190;2024-03-06T14:42:16;23.67;;;21.10;;
5127;SDS011;2582;48.770;9.190;2024-03-06T14:44:41;22.63;;;19.27;;
5127;SDS011;2582;48.770;9.190;2024-03-06T14:47:09;24.93;;;21.07;;
5127;SDS011;2582;48.770;9.190;2024-03-06T14:49:34;27.10;;;21.33;;
5127;SDS011;2582;48.770;9.190;2024-03-06T14:52:00;22.33;;;20.00;;
5127;SDS011;2582;48.770;9.190;2024-03-06T14:54:27;22.10;;;19.87;;
5127;SDS011;2582;48.770;9.190;2024-03-06T14:56:53;25.50;;;23.03;;
5127;SDS011;2582;48.770;9.190;2024-03-06T14:59:18;22.17;;;19.87;;
5127;SDS011;2582;48.770;9.190;2024-03-06T15:01:44;21.87;;;19.67;;
5127;SDS011;2582;48.770;9.190;2024-03-06T15:04:12;21.57;;;19.27;;
5127;SDS011;2582;48.770;9.190;2024-03-06T15:06:38;24.57;;;21.97;;
5127;SDS011;2582;48.770;9.190;2024-03-06T15:09:04;22.97;;;20.57;;
5127;SDS011;2582;48.770;9.190;2024-03-06T15:11:29;23.97;;;21.67;;